Time;durP1;ratioP1;P1;durP2;ratioP2;P2;SDS_P1;SDS_P2;PMS_P1;PMS_P2;Temp;Humidity;BMP_temperature;BMP_pressure;BME280_temperature;BME280_humidity;BME280_pressure;Samples;Min_cycle;Max_cycle;Signal;HPM_P1;HPM_P2
2022/07/08 00:00:10;;;;;;;11.93;2.80;;;16.10;99.90;;;;;;5073633;28;20519;-41
2022/07/08 00:02:38;;;;;;;13.40;3.33;;;16.10;99.90;;;;;;5073516;28;20434;-44
2022/07/08 00:05:11;;;;;;;13.03;3.60;;;16.10;99.90;;;;;;5073677;28;20479;-48
2022/07/08 00:07:38;;;;;;;12.90;2.47;;;16.00;99.90;;;;;;5073618;28;20502;-47
2022/07/08 00:10:08;;;;;;;5.97;2.57;;;16.00;99.90;;;;;;5073605;28;20445;-48
2022/07/08 00:12:37;;;;;;;17.30;2.23;;;16.00;99.90;;;;;;5065912;28;20546;-40
2022/07/08 00:15:04;;;;;;;10.43;3.20;;;16.00;99.90;;;;;;5072943;28;20493;-45
2022/07/08 00:17:32;;;;;;;8.47;2.43;;;16.00;99.90;;;;;;5063989;28;20503;-45
2022/07/08 00:19:58;;;;;;;8.03;2.83;;;16.00;99.90;;;;;;5072720;28;20435;-42
2022/07/08 00:22:26;;;;;;;8.80;2.57;;;15.90;99.90;;;;;;5072925;28;20530;-45
2022/07/08 00:24:53;;;;;;;8.17;3.67;;;15.90;99.90;;;;;;5073179;28;20542;-40
2022/07/08 00:27:20;;;;;;;6.43;3.00;;;15.90;99.90;;;;;;5073155;28;20463;-46
2022/07/08 00:29:48;;;;;;;6.20;3.23;;;15.90;99.90;;;;;;5073222;28;20487;-41
2022/07/08 00:32:15;;;;;;;10.83;3.77;;;15.90;99.90;;;;;;5072449;28;20479;-52
2022/07/08 00:34:42;;;;;;;14.90;3.23;;;16.00;99.90;;;;;;5072901;28;20457;-50
2022/07/08 00:37:11;;;;;;;13.27;3.07;;;15.90;99.90;;;;;;5073241;28;20523;-45
2022/07/08 00:39:38;;;;;;;21.97;3.30;;;15.90;99.90;;;;;;5072860;28;20450;-45
2022/07/08 00:42:06;;;;;;;15.17;3.40;;;15.90;99.90;;;;;;5073858;28;20507;-46
2022/07/08 00:44:33;;;;;;;11.93;3.23;;;15.90;99.90;;;;;;5076659;28;21236;-47
2022/07/08 00:47:01;;;;;;;9.73;3.13;;;15.90;99.90;;;;;;5076430;28;20474;-45
2022/07/08 00:49:28;;;;;;;8.50;2.90;;;15.90;99.90;;;;;;5077322;28;20467;-48
2022/07/08 00:51:56;;;;;;;15.57;3.33;;;15.90;99.90;;;;;;5076438;28;20463;-48
2022/07/08 00:54:24;;;;;;;7.10;2.43;;;15.90;99.90;;;;;;5076522;28;20503;-46
2022/07/08 00:56:51;;;;;;;15.23;3.10;;;15.90;99.90;;;;;;5076207;28;20733;-46
2022/07/08 00:59:17;;;;;;;5.70;3.13;;;15.80;99.90;;;;;;5076113;28;20447;-47
2022/07/08 01:01:44;;;;;;;17.70;4.23;;;15.80;99.90;;;;;;5075661;28;20446;-41
2022/07/08 01:04:12;;;;;;;11.87;3.17;;;15.80;99.90;;;;;;5076308;28;20453;-44
2022/07/08 01:06:39;;;;;;;12.67;3.00;;;15.80;99.90;;;;;;5076123;28;20439;-48
2022/07/08 01:09:08;;;;;;;8.93;3.10;;;15.80;99.90;;;;;;5076038;28;20427;-44
2022/07/08 01:11:38;;;;;;;13.10;3.40;;;15.80;99.90;;;;;;5075605;28;20440;-43
2022/07/08 01:14:05;;;;;;;17.83;4.17;;;15.80;99.90;;;;;;5075634;28;20530;-51
2022/07/08 01:16:32;;;;;;;18.10;3.43;;;15.90;99.90;;;;;;5076223;28;20490;-49
2022/07/08 01:18:59;;;;;;;12.73;3.47;;;15.90;99.90;;;;;;5076719;28;20478;-44
2022/07/08 01:21:27;;;;;;;12.13;3.10;;;15.90;99.90;;;;;;5076633;28;20456;-45
2022/07/08 01:23:54;;;;;;;15.43;3.80;;;15.80;99.90;;;;;;5076171;28;20483;-40
2022/07/08 01:26:21;;;;;;;13.00;4.13;;;15.80;99.90;;;;;;5076019;28;20463;-35
2022/07/08 01:28:48;;;;;;;12.33;3.10;;;15.80;99.90;;;;;;5076587;28;20553;-44
2022/07/08 01:31:15;;;;;;;11.80;3.90;;;15.80;99.90;;;;;;5076211;28;20460;-45
2022/07/08 01:33:43;;;;;;;11.30;3.33;;;15.80;99.90;;;;;;5076078;28;20497;-41
2022/07/08 01:36:10;;;;;;;23.20;4.07;;;15.80;99.90;;;;;;5075758;28;20437;-44
2022/07/08 01:38:38;;;;;;;24.43;4.90;;;15.70;99.90;;;;;;5075546;28;20496;-50
2022/07/08 01:41:05;;;;;;;8.10;3.00;;;15.80;99.90;;;;;;5075056;28;20499;-44
2022/07/08 01:43:32;;;;;;;15.83;3.20;;;15.80;99.90;;;;;;5075108;28;20499;-47
2022/07/08 01:45:59;;;;;;;15.13;3.17;;;15.80;99.90;;;;;;5075798;28;20478;-47
2022/07/08 01:48:26;;;;;;;11.53;3.20;;;15.90;99.90;;;;;;5075525;28;20428;-46
2022/07/08 01:50:55;;;;;;;17.27;3.90;;;15.90;99.90;;;;;;5075670;28;20439;-50
2022/07/08 01:53:22;;;;;;;8.30;3.10;;;15.90;99.90;;;;;;5075170;28;20483;-43
2022/07/08 01:55:50;;;;;;;9.00;2.80;;;15.90;99.90;;;;;;5075183;28;20473;-43
2022/07/08 01:58:17;;;;;;;16.27;3.03;;;16.00;99.90;;;;;;5075374;28;20443;-49
2022/07/08 02:00:44;;;;;;;14.13;3.47;;;16.00;99.90;;;;;;5075278;28;20423;-47
2022/07/08 02:03:11;;;;;;;10.17;4.50;;;15.90;99.90;;;;;;5074693;28;20479;-47
2022/07/08 02:05:38;;;;;;;9.27;3.00;;;16.00;99.90;;;;;;5075137;28;20467;-49
2022/07/08 02:08:05;;;;;;;8.37;3.60;;;16.00;99.90;;;;;;5075585;28;20431;-49
2022/07/08 02:12:18;;;;;;;13.97;3.47;;;15.90;99.90;;;;;;5075244;28;20446;-52
2022/07/08 02:13:20;;;;;;;11.57;4.07;;;15.90;99.90;;;;;;5074800;28;20483;-47
2022/07/08 02:15:49;;;;;;;9.50;3.60;;;15.90;99.90;;;;;;5074648;28;20474;-46
2022/07/08 02:18:19;;;;;;;11.57;2.90;;;15.90;99.90;;;;;;5074866;28;20502;-47
2022/07/08 02:20:47;;;;;;;11.30;3.73;;;15.80;99.90;;;;;;5074937;28;20473;-50
2022/07/08 02:23:14;;;;;;;8.00;3.80;;;15.90;99.90;;;;;;5074356;28;20459;-50
2022/07/08 02:25:40;;;;;;;10.67;3.53;;;15.90;99.90;;;;;;5074856;28;20550;-43
2022/07/08 02:28:07;;;;;;;9.90;3.60;;;16.00;99.90;;;;;;5074740;28;20500;-48
2022/07/08 02:30:36;;;;;;;12.90;3.70;;;16.00;99.90;;;;;;5074761;28;20455;-48
2022/07/08 02:33:03;;;;;;;6.73;4.10;;;16.00;99.90;;;;;;5074493;28;20487;-40
2022/07/08 02:35:30;;;;;;;12.00;3.33;;;16.00;99.90;;;;;;5074368;28;20455;-39
2022/07/08 02:37:56;;;;;;;10.27;3.27;;;16.00;99.90;;;;;;5074540;28;20518;-44
2022/07/08 02:40:23;;;;;;;11.50;3.03;;;16.00;99.90;;;;;;5074234;28;20473;-42
2022/07/08 02:42:50;;;;;;;11.83;4.17;;;16.00;99.90;;;;;;5074532;28;20443;-37
2022/07/08 02:45:17;;;;;;;10.37;3.50;;;16.00;99.90;;;;;;5074053;28;20453;-43
2022/07/08 02:47:45;;;;;;;9.50;2.63;;;16.10;99.90;;;;;;5074392;28;20470;-47
2022/07/08 02:50:12;;;;;;;8.10;3.40;;;16.10;99.90;;;;;;5073718;28;20444;-48
2022/07/08 02:52:39;;;;;;;11.57;3.60;;;16.10;99.90;;;;;;5073965;28;20542;-46
2022/07/08 02:55:06;;;;;;;8.53;2.93;;;16.10;99.90;;;;;;5074294;28;20461;-45
2022/07/08 02:57:33;;;;;;;9.30;3.30;;;16.10;99.90;;;;;;5074674;28;20454;-47
2022/07/08 03:00:00;;;;;;;11.33;3.23;;;16.20;99.90;;;;;;5073693;28;20479;-46
2022/07/08 03:02:28;;;;;;;13.73;3.53;;;16.20;99.90;;;;;;5073578;28;20499;-49
2022/07/08 03:04:58;;;;;;;8.30;2.70;;;16.20;99.90;;;;;;5073576;28;20519;-47
2022/07/08 03:07:25;;;;;;;11.63;3.40;;;16.20;99.90;;;;;;5074091;28;20466;-40
2022/07/08 03:09:51;;;;;;;14.83;3.60;;;16.20;99.90;;;;;;5074219;28;20583;-41
2022/07/08 03:12:18;;;;;;;15.37;2.80;;;16.10;99.90;;;;;;5074068;28;20494;-47
2022/07/08 03:14:45;;;;;;;16.23;4.30;;;16.20;99.90;;;;;;5074018;28;20474;-45
2022/07/08 03:17:12;;;;;;;12.33;3.23;;;16.20;99.90;;;;;;5074025;28;20490;-44
2022/07/08 03:19:39;;;;;;;7.70;2.90;;;16.20;99.90;;;;;;5074231;28;20462;-47
2022/07/08 03:22:07;;;;;;;11.13;3.23;;;16.20;99.90;;;;;;5073877;28;20515;-43
2022/07/08 03:24:34;;;;;;;7.70;3.13;;;16.20;99.90;;;;;;5074765;28;20446;-47
2022/07/08 03:27:00;;;;;;;11.40;2.60;;;16.20;99.90;;;;;;5074391;28;20526;-48
2022/07/08 03:29:27;;;;;;;14.03;4.50;;;16.20;99.90;;;;;;5068451;28;20439;-54
2022/07/08 03:31:54;;;;;;;8.03;5.00;;;16.10;99.90;;;;;;5073784;28;20971;-51
2022/07/08 03:34:21;;;;;;;13.37;3.03;;;16.10;99.90;;;;;;5073693;28;20473;-47
2022/07/08 03:36:50;;;;;;;17.53;3.90;;;16.20;99.90;;;;;;5074297;28;20491;-48
2022/07/08 03:39:18;;;;;;;13.03;3.00;;;16.10;99.90;;;;;;5073788;28;20482;-46
2022/07/08 03:41:44;;;;;;;9.17;2.90;;;16.20;99.90;;;;;;5073528;28;20903;-45
2022/07/08 03:44:11;;;;;;;11.43;3.43;;;16.10;99.90;;;;;;5073765;28;20439;-49
2022/07/08 03:46:40;;;;;;;9.17;2.60;;;16.20;99.90;;;;;;5074306;28;20299;-43
2022/07/08 03:49:07;;;;;;;12.97;3.00;;;16.20;99.90;;;;;;5073157;28;20463;-42
2022/07/08 03:51:34;;;;;;;8.37;2.73;;;16.30;99.90;;;;;;5073661;28;20439;-50
2022/07/08 03:54:01;;;;;;;19.40;3.03;;;16.30;99.90;;;;;;5073745;28;20517;-50
2022/07/08 03:56:29;;;;;;;13.07;3.03;;;16.30;99.90;;;;;;5073611;28;20518;-52
2022/07/08 03:58:56;;;;;;;12.40;2.63;;;16.30;99.90;;;;;;5074148;28;20493;-49
2022/07/08 04:01:23;;;;;;;9.23;3.23;;;16.30;99.90;;;;;;5073284;28;20483;-53
2022/07/08 04:03:50;;;;;;;8.53;3.23;;;16.30;99.90;;;;;;5073508;28;20519;-51
2022/07/08 04:06:20;;;;;;;11.43;3.17;;;16.30;99.90;;;;;;5073776;28;20534;-44
2022/07/08 04:08:51;;;;;;;8.70;3.20;;;16.30;99.90;;;;;;5073978;28;20437;-51
2022/07/08 04:11:18;;;;;;;8.27;3.10;;;16.30;99.90;;;;;;5073827;28;20466;-51
2022/07/08 04:13:46;;;;;;;8.77;3.00;;;16.30;99.90;;;;;;5074148;28;20503;-52
2022/07/08 04:16:13;;;;;;;10.87;3.17;;;16.20;99.90;;;;;;5074028;28;20459;-47
2022/07/08 04:18:41;;;;;;;9.10;2.73;;;16.10;99.90;;;;;;5076789;28;20487;-53
2022/07/08 04:21:08;;;;;;;7.73;2.60;;;16.10;99.90;;;;;;5077597;28;20507;-45
2022/07/08 04:23:37;;;;;;;10.80;2.70;;;16.10;99.90;;;;;;5078173;28;20482;-49
2022/07/08 04:26:04;;;;;;;12.43;2.80;;;16.10;99.90;;;;;;5078234;28;20491;-53
2022/07/08 04:28:31;;;;;;;8.47;3.07;;;16.00;99.90;;;;;;5078374;28;20507;-43
2022/07/08 04:30:59;;;;;;;12.27;3.20;;;16.00;99.90;;;;;;5078156;28;20459;-44
2022/07/08 04:33:26;;;;;;;15.93;3.80;;;16.10;99.90;;;;;;5078323;28;20475;-42
2022/07/08 04:35:53;;;;;;;9.60;3.20;;;16.10;99.90;;;;;;5078132;28;20483;-38
2022/07/08 04:38:22;;;;;;;11.90;3.03;;;16.10;99.90;;;;;;5077774;28;20506;-52
2022/07/08 04:40:49;;;;;;;7.20;3.00;;;16.20;99.90;;;;;;5077384;28;20502;-43
2022/07/08 04:43:15;;;;;;;14.43;3.93;;;16.20;99.90;;;;;;5074372;28;20511;-57
2022/07/08 04:45:42;;;;;;;12.30;3.50;;;16.20;99.90;;;;;;5076276;28;20467;-46
2022/07/08 04:48:10;;;;;;;8.63;3.23;;;16.30;99.90;;;;;;5077990;28;20443;-41
2022/07/08 04:50:37;;;;;;;15.63;3.50;;;16.30;99.90;;;;;;5073805;28;20447;-54
2022/07/08 04:53:06;;;;;;;9.43;3.40;;;16.40;99.90;;;;;;5075918;28;20473;-38
2022/07/08 04:55:32;;;;;;;10.67;2.93;;;16.40;99.90;;;;;;5078336;28;20459;-40
2022/07/08 04:58:01;;;;;;;9.80;4.87;;;16.50;99.90;;;;;;5078241;28;20592;-48
2022/07/08 05:00:28;;;;;;;8.17;2.63;;;16.50;99.90;;;;;;5078188;28;20486;-41
2022/07/08 05:03:02;;;;;;;7.97;3.20;;;16.60;99.90;;;;;;5078270;28;20455;-45
2022/07/08 05:05:31;;;;;;;9.77;2.73;;;16.60;99.90;;;;;;5078421;28;20462;-45
2022/07/08 05:07:58;;;;;;;13.60;3.57;;;16.70;99.90;;;;;;5078431;28;20491;-50
2022/07/08 05:10:26;;;;;;;5.60;2.63;;;16.70;99.90;;;;;;5078436;28;20438;-41
2022/07/08 05:12:59;;;;;;;8.03;3.93;;;16.60;99.90;;;;;;5077396;28;20474;-45
2022/07/08 05:15:27;;;;;;;6.10;2.80;;;16.70;99.90;;;;;;5078094;28;20463;-52
2022/07/08 05:17:54;;;;;;;6.30;3.17;;;16.70;99.90;;;;;;5077482;28;20531;-46
2022/07/08 05:20:22;;;;;;;10.50;3.00;;;16.60;99.90;;;;;;5077497;28;20519;-44
2022/07/08 05:22:50;;;;;;;8.27;2.67;;;16.60;99.90;;;;;;5078466;28;20459;-50
2022/07/08 05:25:18;;;;;;;7.77;3.03;;;16.60;99.90;;;;;;5078585;28;20462;-48
2022/07/08 05:27:45;;;;;;;8.60;2.83;;;16.60;99.90;;;;;;5078382;28;20443;-52
2022/07/08 05:30:13;;;;;;;8.03;3.50;;;16.60;99.90;;;;;;5077527;28;20459;-43
2022/07/08 05:32:42;;;;;;;14.37;3.10;;;16.60;99.90;;;;;;5078102;28;20467;-43
2022/07/08 05:35:09;;;;;;;13.37;3.03;;;16.60;99.90;;;;;;5077805;28;20474;-43
2022/07/08 05:37:38;;;;;;;10.13;3.00;;;16.60;99.90;;;;;;5077435;28;20431;-51
2022/07/08 05:40:08;;;;;;;5.80;2.40;;;16.50;99.90;;;;;;5090685;28;20506;-39
2022/07/08 05:42:35;;;;;;;7.60;3.37;;;16.50;99.90;;;;;;5097141;28;20442;-39
2022/07/08 05:45:01;;;;;;;5.73;3.20;;;16.40;99.90;;;;;;5097500;28;20533;-55
2022/07/08 05:47:28;;;;;;;4.67;2.60;;;16.30;99.90;;;;;;5098004;28;20490;-53
2022/07/08 05:49:55;;;;;;;7.93;2.97;;;16.20;99.90;;;;;;5097275;28;20455;-51
2022/07/08 05:52:25;;;;;;;4.20;2.90;;;16.10;99.90;;;;;;5095111;28;20462;-40
2022/07/08 05:54:54;;;;;;;12.07;2.93;;;16.00;99.90;;;;;;5095742;28;20478;-41
2022/07/08 05:57:22;;;;;;;5.70;2.00;;;16.00;99.90;;;;;;5095344;28;20461;-35
2022/07/08 05:59:50;;;;;;;4.20;2.40;;;16.30;99.90;;;;;;5096010;28;20462;-48
2022/07/08 06:02:18;;;;;;;19.40;4.10;;;16.40;99.90;;;;;;5096882;28;20565;-48
2022/07/08 06:04:45;;;;;;;6.70;3.53;;;16.50;99.90;;;;;;5090745;28;20430;-43
2022/07/08 06:07:12;;;;;;;14.43;2.73;;;16.60;99.90;;;;;;5074307;28;20512;-42
2022/07/08 06:09:39;;;;;;;15.10;3.20;;;16.70;99.90;;;;;;5074634;28;20451;-43
2022/07/08 06:12:06;;;;;;;10.40;3.47;;;17.00;99.90;;;;;;5074006;28;20443;-39
2022/07/08 06:14:35;;;;;;;5.47;2.00;;;17.00;99.90;;;;;;5074410;28;20487;-48
2022/07/08 06:17:02;;;;;;;6.40;2.43;;;16.80;99.90;;;;;;5074537;28;20435;-40
2022/07/08 06:19:29;;;;;;;6.93;2.40;;;16.70;99.90;;;;;;5074928;28;20519;-41
2022/07/08 06:21:56;;;;;;;5.47;2.30;;;16.70;99.90;;;;;;5075430;28;20471;-44
2022/07/08 06:24:23;;;;;;;5.63;2.20;;;16.70;99.90;;;;;;5075860;28;20503;-47
2022/07/08 06:26:49;;;;;;;7.87;2.40;;;16.60;99.90;;;;;;5068121;28;20554;-48
2022/07/08 06:29:18;;;;;;;3.33;2.33;;;16.60;99.90;;;;;;5076122;28;20443;-55
2022/07/08 06:31:46;;;;;;;11.50;2.20;;;16.60;99.90;;;;;;5067270;28;20436;-45
2022/07/08 06:34:13;;;;;;;11.63;3.10;;;16.50;99.90;;;;;;5061928;28;20742;-45
2022/07/08 06:36:40;;;;;;;6.70;2.70;;;16.60;99.90;;;;;;5069737;28;20432;-52
2022/07/08 06:39:08;;;;;;;8.03;4.03;;;16.70;99.90;;;;;;5075374;28;20479;-49
2022/07/08 06:41:35;;;;;;;5.60;3.23;;;16.60;99.90;;;;;;5075308;28;20431;-48
2022/07/08 06:44:02;;;;;;;6.93;3.07;;;16.50;99.90;;;;;;5075463;28;20511;-47
2022/07/08 06:46:29;;;;;;;8.10;3.00;;;16.50;99.90;;;;;;5076479;28;20443;-36
2022/07/08 06:48:57;;;;;;;9.17;3.47;;;16.50;99.90;;;;;;5071229;28;20471;-47
2022/07/08 06:51:24;;;;;;;5.27;2.90;;;16.50;99.90;;;;;;5061854;28;20459;-50
2022/07/08 06:56:35;;;;;;;18.50;4.93;;;16.40;99.90;;;;;;5056805;28;20455;-45
2022/07/08 06:59:04;;;;;;;15.07;4.47;;;16.30;99.90;;;;;;5052932;28;20458;-54
2022/07/08 07:01:31;;;;;;;9.40;3.63;;;16.20;99.90;;;;;;5061922;28;20443;-52
2022/07/08 07:03:59;;;;;;;6.80;3.10;;;16.10;99.90;;;;;;5069723;28;20452;-47
2022/07/08 07:06:31;;;;;;;9.37;3.73;;;16.00;99.90;;;;;;5054967;28;20463;-44
2022/07/08 07:08:58;;;;;;;12.10;3.10;;;16.00;99.90;;;;;;5051972;28;20421;-52
2022/07/08 07:11:24;;;;;;;11.30;3.90;;;16.00;99.90;;;;;;5053580;28;20472;-47
2022/07/08 07:13:54;;;;;;;5.93;2.80;;;16.00;99.90;;;;;;5071875;28;20511;-44
2022/07/08 07:16:21;;;;;;;7.97;3.03;;;16.00;99.90;;;;;;5072640;28;20462;-45
2022/07/08 07:18:48;;;;;;;11.53;3.20;;;16.00;99.90;;;;;;5062906;28;20452;-50
2022/07/08 07:21:16;;;;;;;14.63;3.10;;;16.00;99.90;;;;;;5074835;28;20427;-41
2022/07/08 07:23:43;;;;;;;10.90;3.40;;;16.00;99.90;;;;;;5075941;28;20535;-36
2022/07/08 07:26:10;;;;;;;14.90;3.50;;;16.00;99.90;;;;;;5063657;28;20450;-51
2022/07/08 07:28:37;;;;;;;6.30;2.37;;;15.90;99.90;;;;;;5070351;28;20457;-54
2022/07/08 07:31:06;;;;;;;10.50;3.40;;;15.90;99.90;;;;;;5070676;28;20456;-49
2022/07/08 07:33:33;;;;;;;17.50;3.60;;;15.90;99.90;;;;;;5074931;28;20424;-45
2022/07/08 07:36:00;;;;;;;6.77;3.17;;;15.90;99.90;;;;;;5074346;28;20507;-51
2022/07/08 07:38:28;;;;;;;14.00;3.57;;;16.00;99.90;;;;;;5074687;28;20439;-50
2022/07/08 07:40:55;;;;;;;6.20;2.43;;;16.00;99.90;;;;;;5074371;28;20451;-49
2022/07/08 07:43:23;;;;;;;8.80;2.83;;;16.00;99.90;;;;;;5074930;28;20475;-42
2022/07/08 07:45:50;;;;;;;3.83;2.30;;;16.00;99.90;;;;;;5074567;28;20446;-48
2022/07/08 07:48:22;;;;;;;6.17;3.17;;;16.10;99.90;;;;;;5075084;28;20487;-49
2022/07/08 07:50:49;;;;;;;8.60;3.03;;;16.10;99.90;;;;;;5075110;28;20445;-45
2022/07/08 07:53:16;;;;;;;11.63;3.00;;;16.10;99.90;;;;;;5074410;28;20443;-49
2022/07/08 07:55:45;;;;;;;11.43;2.60;;;16.20;99.90;;;;;;5074160;28;20506;-53
2022/07/08 07:58:12;;;;;;;11.70;2.40;;;16.20;99.90;;;;;;5074595;28;20454;-44
2022/07/08 08:00:39;;;;;;;9.00;2.70;;;16.20;99.90;;;;;;5075099;28;20439;-50
2022/07/08 08:03:07;;;;;;;9.40;2.73;;;16.30;99.90;;;;;;5075271;28;20504;-40
2022/07/08 08:05:34;;;;;;;4.50;2.17;;;16.40;99.90;;;;;;5075210;28;20451;-45
2022/07/08 08:08:04;;;;;;;9.87;2.53;;;16.60;99.90;;;;;;5074679;28;20439;-47
2022/07/08 08:10:31;;;;;;;7.53;3.20;;;16.70;99.90;;;;;;5074408;28;20424;-44
2022/07/08 08:13:02;;;;;;;8.60;2.80;;;16.80;99.90;;;;;;5075082;28;20717;-43
2022/07/08 08:15:30;;;;;;;9.67;2.70;;;16.80;99.90;;;;;;5074499;28;20498;-45
2022/07/08 08:17:57;;;;;;;5.77;2.93;;;16.80;99.90;;;;;;5074047;28;20463;-50
2022/07/08 08:20:26;;;;;;;9.93;2.30;;;16.80;99.90;;;;;;5074287;28;20439;-46
2022/07/08 08:22:52;;;;;;;15.80;3.83;;;16.90;99.90;;;;;;5074324;28;20769;-52
2022/07/08 08:25:20;;;;;;;3.30;1.97;;;17.00;99.90;;;;;;5074523;28;20506;-45
2022/07/08 08:27:47;;;;;;;7.10;2.27;;;17.10;99.90;;;;;;5074596;28;20490;-45
2022/07/08 08:30:17;;;;;;;6.03;2.00;;;17.20;99.90;;;;;;5074254;28;20455;-42
2022/07/08 08:32:44;;;;;;;5.60;2.10;;;17.30;99.90;;;;;;5074905;28;20872;-47
2022/07/08 08:35:11;;;;;;;5.57;1.90;;;17.40;99.90;;;;;;5074506;28;20459;-37
2022/07/08 08:37:38;;;;;;;7.63;2.20;;;17.60;99.90;;;;;;5074970;28;20455;-49
2022/07/08 08:40:07;;;;;;;6.20;2.10;;;17.70;99.90;;;;;;5074483;28;20477;-54
2022/07/08 08:42:34;;;;;;;11.50;2.10;;;17.80;99.90;;;;;;5074017;28;20924;-56
2022/07/08 08:45:02;;;;;;;6.77;2.40;;;17.70;99.90;;;;;;5073558;28;20450;-51
2022/07/08 08:47:31;;;;;;;4.27;2.10;;;17.80;99.90;;;;;;5069459;28;20472;-54
2022/07/08 08:50:53;;;;;;;7.63;2.50;;;18.00;99.90;;;;;;5068850;28;20446;-60
2022/07/08 08:52:51;;;;;;;7.40;2.47;;;18.10;99.90;;;;;;5072782;28;20440;-54
2022/07/08 08:55:26;;;;;;;6.77;2.00;;;18.40;99.90;;;;;;5073370;28;20459;-47
2022/07/08 08:57:55;;;;;;;8.17;2.27;;;18.60;99.90;;;;;;5072309;28;20431;-53
2022/07/08 09:00:22;;;;;;;10.20;2.03;;;18.80;99.90;;;;;;5083369;28;20462;-49
2022/07/08 09:02:50;;;;;;;6.00;2.30;;;18.80;99.90;;;;;;5089650;28;20477;-53
2022/07/08 09:05:17;;;;;;;4.63;2.50;;;18.90;99.90;;;;;;5092138;28;20450;-55
2022/07/08 09:07:47;;;;;;;6.77;2.20;;;19.10;99.90;;;;;;5080121;28;20459;-48
2022/07/08 09:10:17;;;;;;;8.40;2.63;;;19.30;99.90;;;;;;5078169;28;20435;-62
2022/07/08 09:13:07;;;;;;;4.27;1.80;;;19.30;99.90;;;;;;5078120;28;20587;-53
2022/07/08 09:15:35;;;;;;;9.73;2.07;;;19.20;99.90;;;;;;5078483;28;20509;-59
2022/07/08 09:18:07;;;;;;;5.70;2.13;;;19.00;99.90;;;;;;5078866;28;20411;-49
2022/07/08 09:20:41;;;;;;;6.00;2.03;;;18.80;99.90;;;;;;5074013;28;20857;-54
2022/07/08 09:23:21;;;;;;;10.13;2.23;;;18.60;99.90;;;;;;5077728;28;20439;-52
2022/07/08 09:25:49;;;;;;;5.07;1.80;;;18.40;99.90;;;;;;5077883;28;20474;-52
2022/07/08 09:28:17;;;;;;;6.83;1.70;;;18.30;99.90;;;;;;5077435;28;20430;-53
2022/07/08 09:30:44;;;;;;;3.60;2.50;;;18.10;99.90;;;;;;5076608;28;20475;-54
2022/07/08 09:33:13;;;;;;;6.70;2.23;;;17.90;99.90;;;;;;5067705;28;20479;-47
2022/07/08 09:35:43;;;;;;;7.73;2.10;;;17.80;99.90;;;;;;5070942;28;20546;-47
2022/07/08 09:38:10;;;;;;;4.63;1.60;;;17.80;99.90;;;;;;5076133;28;20468;-53
2022/07/08 09:40:37;;;;;;;6.43;1.87;;;17.90;99.90;;;;;;5071111;28;20456;-52
2022/07/08 09:43:13;;;;;;;16.23;2.43;;;17.80;99.90;;;;;;5089688;28;20457;-49
2022/07/08 09:45:40;;;;;;;9.43;1.87;;;17.80;99.90;;;;;;5096460;28;20561;-50
2022/07/08 09:48:11;;;;;;;7.63;1.93;;;17.70;99.90;;;;;;5097058;28;20426;-43
2022/07/08 09:50:44;;;;;;;9.73;1.87;;;17.70;99.90;;;;;;5097321;28;20411;-42
2022/07/08 09:53:13;;;;;;;6.13;2.80;;;17.80;99.90;;;;;;5097580;28;20426;-48
2022/07/08 09:55:42;;;;;;;7.07;2.20;;;17.70;99.90;;;;;;5089219;28;20532;-54
2022/07/08 09:58:12;;;;;;;8.27;2.03;;;17.80;99.90;;;;;;5097472;28;20507;-44
2022/07/08 10:00:39;;;;;;;4.40;2.10;;;17.80;99.90;;;;;;5097938;28;20423;-47
2022/07/08 10:03:06;;;;;;;5.23;2.50;;;17.90;99.90;;;;;;5097406;28;20470;-40
2022/07/08 10:05:34;;;;;;;5.43;2.40;;;18.00;99.90;;;;;;5087881;28;20493;-45
2022/07/08 10:08:02;;;;;;;6.77;1.70;;;18.00;99.90;;;;;;5096056;28;20487;-44
2022/07/08 10:10:29;;;;;;;8.50;2.20;;;18.00;99.90;;;;;;5096640;28;20499;-52
2022/07/08 10:12:59;;;;;;;4.53;2.57;;;17.90;99.90;;;;;;5092476;28;20529;-54
2022/07/08 10:15:26;;;;;;;6.57;2.23;;;17.80;99.90;;;;;;5093082;28;20542;-41
2022/07/08 10:17:54;;;;;;;6.97;2.50;;;17.70;99.90;;;;;;5095521;28;20494;-47
2022/07/08 10:20:25;;;;;;;14.43;3.00;;;17.80;99.90;;;;;;5096133;28;20458;-39
2022/07/08 10:22:55;;;;;;;11.07;2.57;;;18.00;99.90;;;;;;5090425;28;20522;-55
2022/07/08 10:25:25;;;;;;;5.10;1.80;;;18.20;99.90;;;;;;5091881;28;20469;-46
2022/07/08 10:27:51;;;;;;;3.30;2.17;;;18.30;99.90;;;;;;5096557;28;20498;-42
2022/07/08 10:30:20;;;;;;;6.00;1.90;;;18.50;99.90;;;;;;5096392;28;20522;-46
2022/07/08 10:32:48;;;;;;;6.73;2.27;;;18.70;99.90;;;;;;5096114;28;20478;-41
2022/07/08 10:35:20;;;;;;;5.20;2.40;;;19.10;99.90;;;;;;5096600;28;20490;-40
2022/07/08 10:37:48;;;;;;;5.80;1.80;;;19.50;99.90;;;;;;5097289;28;20457;-50
2022/07/08 10:43:22;;;;;;;7.07;2.03;;;20.10;99.90;;;;;;5112493;27;20532;-40
2022/07/08 10:46:01;;;;;;;8.30;2.20;;;20.70;99.90;;;;;;5112815;28;20457;-44
2022/07/08 10:48:28;;;;;;;5.57;2.30;;;21.00;99.90;;;;;;5112737;28;20437;-47
2022/07/08 10:50:55;;;;;;;3.77;1.70;;;21.40;99.90;;;;;;5112561;28;20517;-42
2022/07/08 10:53:22;;;;;;;4.90;1.80;;;21.60;99.90;;;;;;5112663;28;20513;-44
2022/07/08 10:55:49;;;;;;;7.17;2.30;;;21.90;99.90;;;;;;5112663;28;20445;-45
2022/07/08 10:58:17;;;;;;;5.43;1.93;;;22.20;99.90;;;;;;5112130;28;20458;-48
2022/07/08 11:01:26;;;;;;;3.47;1.67;;;22.30;99.90;;;;;;5112494;28;20457;-49
2022/07/08 11:03:53;;;;;;;6.50;1.77;;;22.10;99.90;;;;;;5080769;28;20456;-47
2022/07/08 11:06:34;;;;;;;8.73;1.97;;;22.30;99.90;;;;;;5112376;28;20509;-50
2022/07/08 11:09:01;;;;;;;1.90;1.47;;;22.60;99.90;;;;;;5112570;28;20441;-49
2022/07/08 11:11:29;;;;;;;5.70;1.60;;;22.50;99.90;;;;;;5111969;28;20453;-43
2022/07/08 11:13:59;;;;;;;7.40;1.87;;;22.60;99.90;;;;;;5112614;28;20528;-51
2022/07/08 11:16:32;;;;;;;3.60;1.80;;;22.90;99.90;;;;;;5112423;28;20438;-50
2022/07/08 11:19:00;;;;;;;8.30;2.30;;;22.80;99.90;;;;;;5112445;28;20441;-48
2022/07/08 11:21:27;;;;;;;5.80;1.80;;;22.70;99.90;;;;;;5111938;28;20473;-50
2022/07/08 11:23:54;;;;;;;3.90;1.83;;;22.80;99.90;;;;;;5106999;28;20445;-54
2022/07/08 11:26:23;;;;;;;2.47;1.97;;;23.10;99.90;;;;;;5105195;28;20441;-48
2022/07/08 11:28:51;;;;;;;7.63;1.80;;;23.20;99.90;;;;;;5112291;28;20445;-45
2022/07/08 11:31:32;;;;;;;5.27;1.83;;;23.40;99.90;;;;;;5111477;28;20476;-46
2022/07/08 11:33:59;;;;;;;3.10;1.47;;;23.70;98.30;;;;;;5112080;28;20442;-38
2022/07/08 11:36:26;;;;;;;5.13;1.50;;;24.10;97.00;;;;;;5111375;28;20429;-48
2022/07/08 11:38:53;;;;;;;4.93;1.60;;;24.20;96.20;;;;;;5111687;28;20441;-47
2022/07/08 11:41:20;;;;;;;4.43;1.50;;;24.20;94.60;;;;;;5107182;28;20482;-55
2022/07/08 11:43:49;;;;;;;4.20;1.53;;;24.20;95.80;;;;;;5107159;28;20449;-48
2022/07/08 11:46:18;;;;;;;5.83;1.43;;;24.20;92.50;;;;;;5111841;28;20398;-53
2022/07/08 11:48:48;;;;;;;3.87;1.77;;;23.60;93.70;;;;;;5111794;28;20540;-45
2022/07/08 11:51:16;;;;;;;2.60;1.40;;;23.20;94.50;;;;;;5111412;28;20469;-44
2022/07/08 11:53:44;;;;;;;6.03;1.87;;;23.10;94.10;;;;;;5102064;28;20473;-46
2022/07/08 11:56:11;;;;;;;7.17;1.67;;;22.70;93.20;;;;;;5097796;28;20470;-49
2022/07/08 11:58:39;;;;;;;5.53;1.70;;;22.50;94.50;;;;;;5097916;28;20504;-43
2022/07/08 12:01:06;;;;;;;2.40;1.40;;;22.40;94.60;;;;;;5098339;28;20434;-53
2022/07/08 12:03:34;;;;;;;2.87;1.37;;;22.30;95.40;;;;;;5098591;28;20453;-44
2022/07/08 12:06:04;;;;;;;3.40;1.50;;;22.30;96.20;;;;;;5098384;28;20467;-50
2022/07/08 12:08:33;;;;;;;6.03;1.50;;;22.30;95.30;;;;;;5087304;28;20453;-39
2022/07/08 12:11:14;;;;;;;8.00;2.00;;;22.10;95.80;;;;;;5097708;28;20455;-46
2022/07/08 12:13:45;;;;;;;2.33;1.40;;;22.00;97.20;;;;;;5096196;28;20478;-48
2022/07/08 12:16:28;;;;;;;3.13;1.30;;;21.90;98.20;;;;;;5097222;28;20450;-47
2022/07/08 12:18:55;;;;;;;3.40;1.20;;;21.90;99.70;;;;;;5097250;28;20466;-42
2022/07/08 12:21:23;;;;;;;2.70;1.67;;;21.80;99.10;;;;;;5097612;28;20457;-49
2022/07/08 12:23:58;;;;;;;9.97;2.00;;;21.80;98.80;;;;;;5098061;28;20434;-44
2022/07/08 12:26:25;;;;;;;4.03;1.50;;;21.70;99.90;;;;;;5098167;28;20524;-47
2022/07/08 12:28:52;;;;;;;5.93;1.73;;;21.70;99.90;;;;;;5098042;28;20465;-43
2022/07/08 12:31:33;;;;;;;4.90;1.40;;;21.70;99.90;;;;;;5097234;28;20505;-41
2022/07/08 12:34:03;;;;;;;6.07;1.80;;;21.60;99.90;;;;;;5096944;28;20501;-43
2022/07/08 12:36:32;;;;;;;1.80;1.50;;;21.50;99.90;;;;;;5096653;28;20415;-53
2022/07/08 12:39:10;;;;;;;8.53;2.17;;;21.50;99.90;;;;;;5096749;28;20433;-51
2022/07/08 12:41:37;;;;;;;4.10;1.67;;;21.40;99.90;;;;;;5096580;28;20469;-45
2022/07/08 12:44:28;;;;;;;8.30;3.00;;;21.40;99.90;;;;;;5096912;28;20523;-44
2022/07/08 12:47:01;;;;;;;2.90;1.40;;;21.50;99.90;;;;;;5084348;28;20483;-56
2022/07/08 12:49:30;;;;;;;2.60;1.60;;;21.40;99.90;;;;;;5097289;28;20469;-40
2022/07/08 12:52:00;;;;;;;2.00;1.40;;;21.50;99.90;;;;;;5096413;28;20467;-46
2022/07/08 12:54:27;;;;;;;4.27;2.23;;;21.50;99.90;;;;;;5097294;28;20498;-52